Time;durP1;ratioP1;P1;durP2;ratioP2;P2;SDS_P1;SDS_P2;PMS_P1;PMS_P2;Temp;Humidity;BMP_temperature;BMP_pressure;BME280_temperature;BME280_humidity;BME280_pressure;Samples;Min_cycle;Max_cycle;Signal;HPM_P1;HPM_P2
2022/06/23 00:01:26;;;;;;;1.38;0.65;;;;;;;18.12;50.55;100520.28;5113449;28;20042;-48
2022/06/23 00:03:55;;;;;;;1.20;0.80;;;;;;;17.99;50.97;100505.91;5114120;28;20107;-48
2022/06/23 00:06:32;;;;;;;2.20;0.77;;;;;;;17.98;51.57;100515.13;5113508;28;20489;-49
2022/06/23 00:08:58;;;;;;;4.55;1.08;;;;;;;17.99;50.50;100508.63;5111803;28;20047;-49
2022/06/23 00:11:27;;;;;;;1.55;1.10;;;;;;;17.76;51.74;100498.63;5112282;28;20110;-47
2022/06/23 00:14:06;;;;;;;1.33;0.88;;;;;;;17.78;53.50;100525.56;5111213;28;20032;-47
2022/06/23 00:16:31;;;;;;;2.13;0.75;;;;;;;17.76;51.61;100523.09;5112994;28;20040;-47
2022/06/23 00:18:57;;;;;;;1.65;0.90;;;;;;;17.80;52.15;100523.44;5111532;28;20034;-50
2022/06/23 00:21:33;;;;;;;0.63;0.60;;;;;;;17.86;51.83;100525.19;5112817;28;20072;-47
2022/06/23 00:24:03;;;;;;;0.75;0.60;;;;;;;17.80;51.45;100515.28;5111566;28;20047;-50
2022/06/23 00:26:33;;;;;;;2.78;0.82;;;;;;;17.84;51.71;100521.88;5113857;28;20031;-49
2022/06/23 00:29:06;;;;;;;0.98;0.70;;;;;;;17.83;51.38;100520.25;5114041;28;20031;-48
2022/06/23 00:31:39;;;;;;;0.93;0.50;;;;;;;17.83;51.34;100508.53;5112164;28;20079;-47
2022/06/23 00:34:22;;;;;;;0.40;0.40;;;;;;;17.75;52.77;100505.13;5113414;28;20031;-48
2022/06/23 00:36:54;;;;;;;1.23;0.50;;;;;;;17.56;52.45;100471.06;5113464;28;20040;-48
2022/06/23 00:39:42;;;;;;;1.00;0.55;;;;;;;17.68;53.92;100501.75;5113173;28;20023;-49
2022/06/23 00:42:30;;;;;;;0.35;0.35;;;;;;;17.63;53.97;100501.63;5097815;28;20046;-50
2022/06/23 00:45:04;;;;;;;1.52;0.77;;;;;;;17.36;53.96;100493.16;5111997;28;20424;-47
2022/06/23 00:47:56;;;;;;;3.15;0.88;;;;;;;17.33;53.96;100507.22;5113074;28;20472;-50
2022/06/23 00:50:34;;;;;;;2.35;0.68;;;;;;;17.24;54.03;100479.59;5111545;28;20035;-49
2022/06/23 00:53:19;;;;;;;5.07;0.65;;;;;;;17.21;54.61;100489.03;5111763;28;20030;-49
2022/06/23 00:55:49;;;;;;;;;;;;;;;17.05;56.54;100505.19;5112883;28;20032;-49
2022/06/23 00:58:38;;;;;;;3.72;0.70;;;;;;;17.03;54.61;100508.16;5112708;28;19987;-49
2022/06/23 01:01:31;;;;;;;0.88;0.80;;;;;;;17.05;54.57;100505.19;5111255;28;20442;-47
2022/06/23 01:04:06;;;;;;;0.73;0.73;;;;;;;17.02;53.91;100490.22;5111139;28;20028;-48
2022/06/23 01:06:40;;;;;;;1.30;0.90;;;;;;;16.99;54.67;100499.69;5111021;28;20530;-52
2022/06/23 01:09:26;;;;;;;1.95;0.90;;;;;;;16.94;55.74;100493.31;5112194;28;20048;-48
2022/06/23 01:12:02;;;;;;;1.65;0.70;;;;;;;16.91;54.55;100496.47;5111417;28;20038;-51
2022/06/23 01:14:40;;;;;;;1.08;0.73;;;;;;;16.96;54.79;100493.91;5112523;28;20054;-47
2022/06/23 01:17:20;;;;;;;1.77;0.98;;;;;;;16.79;56.62;100504.56;5111331;28;20036;-47
2022/06/23 01:20:26;;;;;;;0.70;0.70;;;;;;;16.84;56.06;100510.16;5111692;28;20302;-48
2022/06/23 01:23:04;;;;;;;0.70;0.70;;;;;;;16.76;55.71;100511.28;5068976;28;20047;-47
2022/06/23 01:25:51;;;;;;;4.32;1.08;;;;;;;16.72;56.51;100499.25;5113255;28;20073;-48
2022/06/23 01:28:21;;;;;;;1.02;0.90;;;;;;;16.48;57.07;100487.53;5114553;28;20032;-47
2022/06/23 01:31:11;;;;;;;1.95;0.88;;;;;;;16.39;57.49;100495.16;5097592;28;20023;-48
2022/06/23 01:33:58;;;;;;;1.38;0.82;;;;;;;16.34;57.97;100495.03;5100111;28;20117;-49
2022/06/23 01:36:46;;;;;;;1.52;0.80;;;;;;;16.37;56.67;100493.75;5116275;28;20032;-48
2022/06/23 01:39:24;;;;;;;2.05;0.98;;;;;;;16.32;56.65;100461.91;5117125;28;20035;-49
2022/06/23 01:41:58;;;;;;;1.90;0.90;;;;;;;16.40;56.92;100474.28;5114815;28;20038;-48
2022/06/23 01:44:47;;;;;;;1.13;0.80;;;;;;;16.39;57.52;100476.19;5114937;28;20043;-50
2022/06/23 01:47:24;;;;;;;1.15;0.70;;;;;;;16.32;56.60;100464.63;5114730;28;20051;-49
2022/06/23 01:50:00;;;;;;;1.00;0.68;;;;;;;16.34;56.27;100478.75;5114407;28;20028;-48
2022/06/23 01:52:26;;;;;;;0.73;0.60;;;;;;;16.36;56.20;100484.81;5113954;28;20031;-48
2022/06/23 01:55:00;;;;;;;1.77;0.77;;;;;;;16.20;57.70;100486.28;5114887;28;20084;-49
2022/06/23 01:57:35;;;;;;;2.15;0.80;;;;;;;16.21;57.26;100492.50;5113727;28;20074;-48
2022/06/23 02:00:15;;;;;;;1.00;0.85;;;;;;;16.17;58.76;100489.44;5115231;28;20396;-48
2022/06/23 02:02:58;;;;;;;1.17;0.70;;;;;;;16.00;58.14;100467.59;5113707;28;20444;-48
2022/06/23 02:05:40;;;;;;;1.23;0.82;;;;;;;16.14;57.72;100487.22;5114944;28;20114;-49
2022/06/23 02:08:31;;;;;;;0.80;0.80;;;;;;;16.15;58.45;100490.72;5114094;28;20116;-50
2022/06/23 02:11:07;;;;;;;0.98;0.85;;;;;;;16.02;58.22;100470.06;5113960;28;20126;-49
2022/06/23 02:13:42;;;;;;;1.40;0.60;;;;;;;15.94;57.94;100459.56;5096617;28;20480;-47
2022/06/23 02:16:21;;;;;;;1.17;0.80;;;;;;;16.00;58.01;100473.00;5114888;28;20042;-47
2022/06/23 02:18:59;;;;;;;3.10;1.05;;;;;;;15.97;58.81;100478.03;5115038;28;20072;-48
2022/06/23 02:21:49;;;;;;;2.53;0.80;;;;;;;15.56;59.65;100426.25;5115679;28;20032;-51
2022/06/23 02:24:38;;;;;;;1.15;0.77;;;;;;;15.91;58.36;100478.97;5100042;28;20055;-47
2022/06/23 02:27:18;;;;;;;1.15;0.80;;;;;;;15.85;59.09;100480.72;5113349;28;20055;-49
2022/06/23 02:30:10;;;;;;;0.95;0.68;;;;;;;15.81;58.87;100474.09;5113399;28;20127;-48
2022/06/23 02:33:02;;;;;;;2.10;0.90;;;;;;;15.76;59.75;100469.34;5113347;28;20027;-49
2022/06/23 02:35:46;;;;;;;2.95;1.08;;;;;;;15.70;59.55;100478.38;5114325;28;20032;-50
2022/06/23 02:38:31;;;;;;;2.65;1.20;;;;;;;15.58;60.00;100462.06;5112639;28;20035;-49
2022/06/23 02:41:18;;;;;;;1.67;0.93;;;;;;;15.57;60.16;100471.22;5112998;28;20031;-50
2022/06/23 02:43:52;;;;;;;4.82;1.00;;;;;;;15.48;59.47;100461.75;5114530;28;20024;-50
2022/06/23 02:46:58;;;;;;;2.75;1.30;;;;;;;15.48;60.64;100473.41;5113215;28;20024;-50
2022/06/23 02:50:00;;;;;;;1.50;1.40;;;;;;;15.42;60.95;100477.03;5101972;28;20035;-48
2022/06/23 02:52:48;;;;;;;1.98;1.10;;;;;;;15.27;61.45;100465.75;5113866;28;20031;-48
2022/06/23 02:55:30;;;;;;;1.13;0.98;;;;;;;15.34;60.39;100469.22;5115067;28;20034;-49
2022/06/23 02:58:06;;;;;;;1.80;0.95;;;;;;;15.24;59.97;100453.47;5113662;28;20023;-49
2022/06/23 03:00:45;;;;;;;1.42;0.90;;;;;;;15.23;61.15;100453.69;5114365;28;20480;-51
2022/06/23 03:03:27;;;;;;;1.98;1.13;;;;;;;15.11;60.81;100445.50;5114473;28;20111;-52
2022/06/23 03:06:04;;;;;;;0.95;0.80;;;;;;;15.07;60.43;100433.50;5114918;28;20032;-49
2022/06/23 03:08:55;;;;;;;1.88;0.80;;;;;;;15.15;61.67;100452.13;5112282;28;20490;-48
2022/06/23 03:14:46;;;;;;;3.80;0.88;;;;;;;15.07;61.41;100461.38;5112173;28;20031;-49
2022/06/23 03:17:40;;;;;;;1.10;0.80;;;;;;;14.97;62.16;100442.13;5112106;28;20424;-48
2022/06/23 03:20:27;;;;;;;2.10;1.10;;;;;;;15.06;61.06;100464.28;5112403;28;20088;-48
2022/06/23 03:22:59;;;;;;;2.92;1.13;;;;;;;14.99;60.69;100452.69;5112410;28;20058;-49
2022/06/23 03:25:42;;;;;;;2.60;1.17;;;;;;;15.02;60.95;100454.97;5095229;28;20464;-48
2022/06/23 03:28:32;;;;;;;4.28;1.00;;;;;;;14.92;60.26;100436.56;5095776;28;20114;-49
2022/06/23 03:31:06;;;;;;;3.35;0.88;;;;;;;15.00;60.29;100447.06;5098390;28;20048;-48
2022/06/23 03:33:42;;;;;;;1.67;0.93;;;;;;;14.99;60.23;100453.56;5113720;28;20460;-48
2022/06/23 03:36:32;;;;;;;1.48;1.13;;;;;;;15.01;60.79;100453.34;5113335;28;20555;-47
2022/06/23 03:42:06;;;;;;;1.13;1.00;;;;;;;14.82;60.71;100425.41;5112561;28;20031;-47
2022/06/23 03:44:50;;;;;;;1.92;1.10;;;;;;;14.95;60.66;100452.34;5113465;28;20028;-46
2022/06/23 03:47:28;;;;;;;2.43;1.10;;;;;;;14.83;61.37;100446.81;5113488;28;20034;-47
2022/06/23 03:50:20;;;;;;;1.88;1.00;;;;;;;14.87;61.20;100441.81;5093932;28;20043;-48
2022/06/23 03:52:54;;;;;;;2.60;1.10;;;;;;;14.82;60.04;100450.59;5098842;28;20035;-47
2022/06/23 03:55:30;;;;;;;2.20;1.00;;;;;;;14.83;60.39;100459.53;5113261;28;20082;-47
2022/06/23 03:58:15;;;;;;;2.65;1.50;;;;;;;14.66;62.10;100456.56;5112931;28;20064;-49
2022/06/23 04:00:53;;;;;;;1.70;0.98;;;;;;;14.59;61.08;100453.06;5111716;28;20084;-48
2022/06/23 04:03:26;;;;;;;3.83;2.50;;;;;;;14.50;62.57;100445.22;5111405;28;20038;-49
2022/06/23 04:06:17;;;;;;;2.22;1.80;;;;;;;14.55;63.05;100452.66;5113018;28;20024;-48
2022/06/23 04:08:52;;;;;;;2.97;2.25;;;;;;;14.62;61.40;100463.44;5098319;28;20134;-49
2022/06/23 04:14:12;;;;;;;5.47;2.53;;;;;;;14.59;61.33;100453.88;5097414;28;20062;-47
2022/06/23 04:16:38;;;;;;;4.30;2.80;;;;;;;14.49;63.45;100448.97;5111475;28;20040;-47
2022/06/23 04:19:15;;;;;;;3.90;2.70;;;;;;;14.48;63.53;100452.69;5111464;28;20031;-48
2022/06/23 04:21:49;;;;;;;3.28;2.42;;;;;;;14.45;62.50;100447.75;5113511;28;20116;-49
2022/06/23 04:24:20;;;;;;;3.00;1.92;;;;;;;14.46;62.04;100438.56;5113084;28;20027;-49
2022/06/23 04:26:51;;;;;;;4.72;1.95;;;;;;;14.60;61.98;100455.56;5113015;28;20070;-48
2022/06/23 04:29:26;;;;;;;2.58;2.10;;;;;;;14.60;62.00;100455.56;5112009;28;20051;-49
2022/06/23 04:32:03;;;;;;;2.70;2.22;;;;;;;14.58;61.82;100444.16;5111446;28;20080;-50
2022/06/23 04:34:33;;;;;;;3.47;2.53;;;;;;;14.60;61.71;100441.19;5114471;28;20439;-48
2022/06/23 04:37:00;;;;;;;4.30;2.92;;;;;;;14.67;61.48;100441.97;5113889;28;20373;-48
2022/06/23 04:39:43;;;;;;;5.10;2.83;;;;;;;14.70;61.56;100445.06;5113739;28;20020;-47
2022/06/23 04:42:23;;;;;;;3.35;2.35;;;;;;;14.65;61.29;100433.25;5115931;28;20032;-47
2022/06/23 04:44:53;;;;;;;4.28;2.60;;;;;;;14.63;62.29;100444.28;5111836;28;20028;-48
2022/06/23 04:47:29;;;;;;;3.60;2.47;;;;;;;14.62;62.04;100441.84;5112782;28;20111;-46
2022/06/23 04:50:02;;;;;;;4.00;2.97;;;;;;;14.61;61.70;100424.75;5094773;28;20387;-47
2022/06/23 04:52:37;;;;;;;3.78;2.60;;;;;;;14.98;60.97;100446.47;5112757;28;20023;-47
2022/06/23 04:55:15;;;;;;;4.90;2.38;;;;;;;14.80;61.81;100422.09;5094506;28;20034;-50
2022/06/23 04:57:49;;;;;;;2.58;2.38;;;;;;;14.73;62.11;100442.97;5112855;28;20032;-49
2022/06/23 05:00:27;;;;;;;5.53;2.88;;;;;;;14.62;62.56;100455.34;5113415;28;20028;-48
2022/06/23 05:02:58;;;;;;;4.53;2.45;;;;;;;14.66;62.14;100449.25;5116273;28;20475;-47
2022/06/23 05:05:31;;;;;;;4.25;2.60;;;;;;;14.70;62.00;100449.66;5116338;28;20148;-48
2022/06/23 05:08:05;;;;;;;6.68;2.88;;;;;;;14.74;61.81;100450.03;5116965;28;20391;-48
2022/06/23 05:10:41;;;;;;;3.65;3.00;;;;;;;14.81;61.73;100454.34;5115202;28;20039;-48
2022/06/23 05:13:15;;;;;;;4.90;2.53;;;;;;;14.90;61.32;100439.47;5082052;28;20554;-49
2022/06/23 05:15:56;;;;;;;2.78;2.15;;;;;;;14.84;62.27;100462.00;5116282;28;20031;-48
2022/06/23 05:18:27;;;;;;;6.13;2.53;;;;;;;14.83;61.76;100446.00;5116488;28;20027;-50
2022/06/23 05:21:00;;;;;;;7.88;2.95;;;;;;;14.69;61.80;100415.53;5116127;28;20063;-49
2022/06/23 05:23:34;;;;;;;6.90;3.08;;;;;;;14.90;62.28;100447.59;5116126;28;20027;-47
2022/06/23 05:26:07;;;;;;;6.73;3.40;;;;;;;14.97;62.10;100454.81;5115735;28;20023;-52
2022/06/23 05:28:37;;;;;;;5.07;3.40;;;;;;;14.93;63.49;100453.59;5119832;28;20071;-52
2022/06/23 05:31:08;;;;;;;4.68;3.22;;;;;;;15.02;62.14;100457.66;5115472;28;20070;-49
2022/06/23 05:33:37;;;;;;;4.95;2.85;;;;;;;15.12;62.08;100449.03;5116629;28;20032;-51
2022/06/23 05:36:13;;;;;;;3.25;2.58;;;;;;;15.10;61.77;100435.75;5116547;28;20031;-47
2022/06/23 05:38:47;;;;;;;4.15;2.50;;;;;;;15.19;62.68;100439.81;5116893;28;20024;-48
2022/06/23 05:41:24;;;;;;;5.60;2.88;;;;;;;15.28;62.32;100449.31;5115908;28;20468;-50
2022/06/23 05:43:54;;;;;;;3.58;3.13;;;;;;;15.38;61.52;100450.63;5115910;28;20114;-48
2022/06/23 05:46:22;;;;;;;9.93;3.78;;;;;;;15.45;62.52;100451.38;5097692;28;20019;-49
2022/06/23 05:49:01;;;;;;;7.38;3.60;;;;;;;15.48;62.63;100457.16;5097733;28;20062;-49
2022/06/23 05:51:39;;;;;;;7.25;3.17;;;;;;;15.38;63.73;100451.47;5115773;28;20024;-49
2022/06/23 05:54:18;;;;;;;8.82;3.50;;;;;;;15.22;63.53;100408.78;5113996;28;20085;-49
2022/06/23 05:56:57;;;;;;;9.70;3.70;;;;;;;15.29;64.63;100440.13;5115215;28;20176;-49
2022/06/23 05:59:31;;;;;;;5.88;3.63;;;;;;;15.39;63.13;100434.16;5115104;28;20081;-50
2022/06/23 06:02:09;;;;;;;5.25;3.45;;;;;;;15.43;63.34;100429.13;5115010;28;20028;-50
2022/06/23 06:04:44;;;;;;;7.32;3.40;;;;;;;15.31;63.08;100398.50;5113552;28;20440;-48
2022/06/23 06:07:15;;;;;;;5.70;4.10;;;;;;;15.47;63.41;100416.78;5114225;28;20074;-49
2022/06/23 06:09:40;;;;;;;5.55;3.90;;;;;;;15.54;63.17;100425.66;5114933;28;20048;-50
2022/06/23 06:12:27;;;;;;;9.90;4.30;;;;;;;15.52;63.71;100424.25;5095666;28;20031;-48
2022/06/23 06:15:01;;;;;;;8.00;4.57;;;;;;;15.32;64.43;100402.84;5113672;28;20135;-49
2022/06/23 06:17:30;;;;;;;11.77;4.85;;;;;;;15.30;65.07;100427.41;5115299;28;20400;-50
2022/06/23 06:19:59;;;;;;;7.93;4.32;;;;;;;15.28;64.58;100406.00;5114794;28;20036;-47
2022/06/23 06:22:48;;;;;;;5.53;4.50;;;;;;;15.45;64.26;100416.19;5114910;28;20487;-49
2022/06/23 06:25:26;;;;;;;6.20;5.10;;;;;;;15.49;64.04;100415.53;5114933;28;20137;-50
2022/06/23 06:27:54;;;;;;;9.98;4.32;;;;;;;15.49;63.18;100398.47;5114922;28;20039;-48
2022/06/23 06:30:29;;;;;;;8.52;4.78;;;;;;;15.64;63.52;100420.53;5114883;28;20405;-47
2022/06/23 06:32:55;;;;;;;;;;;;;;;15.83;63.81;100432.19;5115566;28;20173;-49
2022/06/23 06:35:37;;;;;;;10.52;5.22;;;;;;;15.92;63.29;100424.59;5114897;28;20010;-47
2022/06/23 06:38:12;;;;;;;6.13;5.03;;;;;;;16.19;62.90;100419.56;5114882;28;20115;-48
2022/06/23 06:40:40;;;;;;;8.32;5.18;;;;;;;16.35;62.25;100418.09;5113751;28;20023;-47
2022/06/23 06:43:13;;;;;;;5.97;4.68;;;;;;;16.59;61.88;100423.56;5096794;28;20031;-49
2022/06/23 06:45:39;;;;;;;6.63;5.25;;;;;;;16.66;61.97;100429.69;5114525;28;20133;-48
2022/06/23 06:48:13;;;;;;;4.78;4.18;;;;;;;16.81;61.56;100430.03;5114440;28;20035;-51
2022/06/23 06:50:43;;;;;;;10.88;4.43;;;;;;;16.95;61.42;100427.94;5096510;28;20072;-47
2022/06/23 06:53:22;;;;;;;15.20;4.80;;;;;;;17.03;61.17;100410.47;5114217;28;20074;-50
2022/06/23 06:55:52;;;;;;;8.50;4.60;;;;;;;17.15;61.22;100419.44;5097109;28;20148;-48
2022/06/23 06:58:24;;;;;;;7.63;4.45;;;;;;;17.24;61.18;100425.31;5113210;28;20024;-48
2022/06/23 07:00:55;;;;;;;6.82;4.25;;;;;;;17.17;61.90;100413.78;5063051;28;20104;-47
2022/06/23 07:03:24;;;;;;;8.15;4.18;;;;;;;17.39;61.03;100408.53;5114140;28;20420;-47
2022/06/23 07:06:15;;;;;;;4.40;3.63;;;;;;;17.59;60.94;100406.22;5113847;28;20107;-47
2022/06/23 07:08:52;;;;;;;8.40;4.32;;;;;;;17.72;60.17;100394.25;5112953;28;20044;-49
2022/06/23 07:11:41;;;;;;;8.75;4.68;;;;;;;17.90;60.13;100412.25;5114517;28;20028;-48
2022/06/23 07:14:32;;;;;;;8.15;4.72;;;;;;;18.00;59.57;100406.22;5112882;28;20061;-51
2022/06/23 07:17:12;;;;;;;6.07;4.25;;;;;;;18.03;59.24;100394.00;5099262;28;20490;-48
2022/06/23 07:20:01;;;;;;;4.40;3.63;;;;;;;18.30;58.45;100405.09;5113894;28;20106;-50
2022/06/23 07:22:38;;;;;;;8.90;4.07;;;;;;;18.27;58.83;100403.66;5098984;28;20114;-49
2022/06/23 07:25:13;;;;;;;7.60;4.30;;;;;;;18.74;57.94;100394.34;5113572;28;20032;-49
2022/06/23 07:27:46;;;;;;;8.82;4.43;;;;;;;18.81;57.17;100386.84;5113509;28;20073;-48
2022/06/23 07:30:17;;;;;;;4.93;3.40;;;;;;;18.79;57.15;100408.00;5112959;28;20031;-48
2022/06/23 07:33:05;;;;;;;8.55;4.80;;;;;;;18.67;56.87;100383.63;5114333;28;20039;-48
2022/06/23 07:35:48;;;;;;;7.20;4.00;;;;;;;18.95;57.00;100396.31;5113233;28;20073;-48
2022/06/23 07:38:24;;;;;;;6.75;4.20;;;;;;;19.06;56.60;100389.13;5113296;28;20027;-49
2022/06/23 07:41:00;;;;;;;9.00;4.75;;;;;;;19.10;56.50;100390.25;5094976;28;20446;-49
2022/06/23 07:43:49;;;;;;;9.85;3.97;;;;;;;19.08;56.76;100377.97;5113885;28;20127;-50
2022/06/23 07:46:15;;;;;;;7.70;3.40;;;;;;;19.27;55.94;100373.84;5113300;28;20080;-49
2022/06/23 07:48:42;;;;;;;7.78;3.88;;;;;;;19.58;55.48;100376.94;5114847;28;20062;-50
2022/06/23 07:51:10;;;;;;;5.10;4.32;;;;;;;19.77;55.30;100391.06;5114286;28;20479;-48
2022/06/23 07:53:40;;;;;;;7.63;3.70;;;;;;;19.99;54.87;100385.56;5113266;28;20031;-49
2022/06/23 07:56:10;;;;;;;8.35;5.38;;;;;;;19.99;54.54;100390.19;5114226;28;20549;-48
2022/06/23 07:58:42;;;;;;;9.00;4.82;;;;;;;19.95;54.57;100381.72;5113221;28;20035;-48
2022/06/23 08:01:29;;;;;;;14.38;4.47;;;;;;;20.15;54.77;100375.63;5112099;28;20084;-49
2022/06/23 08:04:04;;;;;;;8.45;4.43;;;;;;;20.32;54.31;100383.69;5112191;28;20165;-50
2022/06/23 08:06:33;;;;;;;5.97;3.97;;;;;;;20.18;53.77;100372.38;5113056;28;20468;-49
2022/06/23 08:09:03;;;;;;;7.53;4.20;;;;;;;20.24;54.10;100374.03;5112804;28;20460;-48
2022/06/23 08:14:25;;;;;;;8.35;4.25;;;;;;;20.08;55.09;100380.47;5097807;28;20031;-48
2022/06/23 08:16:51;;;;;;;8.05;5.20;;;;;;;20.12;54.47;100376.13;5112769;28;20071;-51
2022/06/23 08:19:29;;;;;;;6.95;4.57;;;;;;;20.28;54.64;100386.09;5111728;28;20020;-48
2022/06/23 08:22:19;;;;;;;12.98;4.30;;;;;;;20.35;54.71;100385.03;5112894;28;20031;-49
2022/06/23 08:24:50;;;;;;;5.72;4.05;;;;;;;20.35;54.53;100368.69;5113096;28;20035;-51
2022/06/23 08:27:20;;;;;;;11.70;4.38;;;;;;;20.46;54.49;100390.31;5112737;28;20042;-49
2022/06/23 08:29:51;;;;;;;6.40;3.90;;;;;;;20.34;54.36;100372.47;5112806;28;20080;-50
2022/06/23 08:32:18;;;;;;;11.13;4.43;;;;;;;20.34;54.36;100384.22;5112716;28;20103;-50
2022/06/23 08:34:54;;;;;;;11.57;4.38;;;;;;;20.09;55.04;100376.66;5112381;28;20043;-50
2022/06/23 08:37:22;;;;;;;10.57;4.95;;;;;;;20.03;55.19;100372.25;5116804;28;20032;-48
2022/06/23 08:39:58;;;;;;;6.05;3.92;;;;;;;19.85;55.70;100359.78;5116718;28;20039;-49
2022/06/23 08:42:34;;;;;;;8.90;4.07;;;;;;;19.99;55.17;100380.09;5116809;28;20131;-49
2022/06/23 08:45:27;;;;;;;12.43;5.43;;;;;;;19.76;56.15;100383.13;5116972;27;20110;-49
2022/06/23 08:48:06;;;;;;;12.30;6.50;;;;;;;19.62;56.19;100385.44;5116225;28;20043;-51
2022/06/23 08:51:00;;;;;;;9.77;4.60;;;;;;;19.58;57.02;100382.38;5098729;28;20467;-46
2022/06/23 08:53:43;;;;;;;9.60;5.93;;;;;;;19.50;57.86;100371.94;5115764;28;20161;-48
2022/06/23 08:56:17;;;;;;;10.07;6.55;;;;;;;19.41;58.33;100387.06;5116784;28;20042;-47
2022/06/23 08:58:49;;;;;;;;;;;;;;;19.47;59.32;100378.72;5116940;28;20463;-46
2022/06/23 09:01:23;;;;;;;6.10;3.58;;;;;;;19.62;58.50;100372.63;5116708;28;19907;-48
2022/06/23 09:04:17;;;;;;;10.65;4.97;;;;;;;19.83;58.82;100368.22;5115428;28;20102;-48
2022/06/23 09:07:00;;;;;;;19.27;7.07;;;;;;;19.64;60.34;100370.47;5085671;28;20114;-48
2022/06/23 09:09:37;;;;;;;17.13;8.05;;;;;;;19.63;61.46;100365.25;5115972;28;20052;-47
2022/06/23 09:12:16;;;;;;;21.48;6.00;;;;;;;19.69;60.46;100353.34;5117867;28;20028;-48
2022/06/23 09:15:14;;;;;;;17.23;5.60;;;;;;;19.85;61.14;100359.78;5118120;28;20116;-52
2022/06/23 09:18:00;;;;;;;15.15;6.38;;;;;;;19.61;60.86;100345.63;5117408;28;20383;-51
2022/06/23 09:20:46;;;;;;;6.57;4.05;;;;;;;19.69;59.93;100351.44;5117702;28;20024;-48
2022/06/23 09:23:39;;;;;;;10.48;5.38;;;;;;;19.78;59.75;100337.38;5122201;28;20050;-49
2022/06/23 09:26:45;;;;;;;12.68;6.10;;;;;;;20.01;59.26;100347.97;5118662;28;20024;-48
2022/06/23 09:29:42;;;;;;;11.02;5.68;;;;;;;20.22;58.59;100338.03;5117280;28;20472;-50
2022/06/23 09:32:32;;;;;;;9.95;5.45;;;;;;;20.31;58.19;100339.19;5102243;28;20063;-48
2022/06/23 09:35:35;;;;;;;5.25;3.50;;;;;;;20.23;58.23;100331.50;5087995;28;20074;-49
2022/06/23 09:38:26;;;;;;;9.90;5.35;;;;;;;20.25;58.75;100310.25;5102301;28;20091;-51
2022/06/23 09:41:24;;;;;;;5.68;5.07;;;;;;;20.49;58.45;100324.31;5116602;28;20032;-48
2022/06/23 09:44:13;;;;;;;8.05;4.60;;;;;;;20.62;57.88;100325.00;5117684;28;20039;-47
2022/06/23 09:46:55;;;;;;;6.15;5.00;;;;;;;20.59;58.02;100320.00;5131271;27;20050;-48
2022/06/23 09:49:48;;;;;;;6.50;5.53;;;;;;;20.38;58.53;100302.72;5116423;28;20028;-51
2022/06/23 09:52:48;;;;;;;7.82;5.35;;;;;;;20.43;57.75;100321.81;5120723;28;20306;-52
2022/06/23 09:55:54;;;;;;;8.90;5.07;;;;;;;20.08;58.76;100288.59;5108579;28;20058;-51
2022/06/23 09:58:48;;;;;;;11.75;4.68;;;;;;;20.08;58.33;100301.41;5109999;28;20042;-48
2022/06/23 10:01:40;;;;;;;11.10;5.10;;;;;;;20.19;58.45;100302.28;5101937;28;20031;-49
2022/06/23 10:04:21;;;;;;;3.40;3.00;;;;;;;20.33;57.18;100295.28;5116649;28;20080;-48
2022/06/23 10:07:11;;;;;;;7.03;4.47;;;;;;;20.60;57.03;100295.22;5115985;28;20083;-49
2022/06/23 10:10:12;;;;;;;5.00;3.55;;;;;;;21.06;56.30;100291.88;5097948;28;20092;-48
2022/06/23 10:13:10;;;;;;;6.68;4.45;;;;;;;21.68;54.27;100281.94;5115005;28;20028;-50
2022/06/23 10:16:04;;;;;;;6.80;4.07;;;;;;;22.29;53.49;100285.75;5114765;28;20057;-49
2022/06/23 10:19:09;;;;;;;6.20;4.05;;;;;;;22.68;53.36;100282.38;5115018;28;20036;-47
2022/06/23 10:22:15;;;;;;;5.70;4.28;;;;;;;22.81;50.51;100292.75;5104989;28;20039;-47
2022/06/23 10:25:15;;;;;;;5.07;4.03;;;;;;;22.58;47.20;100295.03;5105601;28;20036;-47
2022/06/23 10:28:00;;;;;;;4.97;3.72;;;;;;;22.99;49.09;100283.06;5115195;28;20043;-48
2022/06/23 10:30:32;;;;;;;;;;;;;;;25.42;43.02;100286.06;5097667;28;20032;-48
2022/06/23 10:33:24;;;;;;;5.15;3.20;;;;;;;26.72;43.81;100278.09;5116046;28;19915;-48
2022/06/23 10:36:19;;;;;;;7.50;4.03;;;;;;;26.69;42.59;100278.69;5114517;28;20034;-51
2022/06/23 10:39:09;;;;;;;9.38;3.65;;;;;;;27.83;39.09;100256.56;5114129;28;20051;-51
2022/06/23 10:42:07;;;;;;;7.18;4.25;;;;;;;28.63;34.86;100259.44;5115022;28;20103;-47
2022/06/23 10:44:47;;;;;;;10.48;3.75;;;;;;;28.71;36.48;100258.66;5114169;28;20077;-49
2022/06/23 10:47:39;;;;;;;7.63;3.85;;;;;;;29.22;35.73;100253.56;5114452;28;20024;-49
2022/06/23 10:50:45;;;;;;;10.05;3.22;;;;;;;30.38;35.06;100246.41;5112996;28;20483;-51
2022/06/23 10:53:50;;;;;;;6.50;4.00;;;;;;;30.14;34.07;100210.94;5102303;28;20437;-49
2022/06/23 10:56:57;;;;;;;6.55;3.83;;;;;;;31.13;31.23;100236.69;5113171;28;20046;-49
2022/06/23 10:59:37;;;;;;;5.22;3.45;;;;;;;31.32;31.02;100223.16;5101666;28;20028;-49
2022/06/23 11:02:19;;;;;;;5.40;3.00;;;;;;;31.27;31.45;100221.38;5113057;28;20027;-52
2022/06/23 11:05:22;;;;;;;4.00;2.83;;;;;;;30.63;32.33;100230.78;5113394;28;20023;-49
2022/06/23 11:08:06;;;;;;;6.90;4.07;;;;;;;29.01;31.57;100233.19;5112967;28;20043;-47
2022/06/23 11:10:49;;;;;;;9.50;3.80;;;;;;;28.17;33.32;100216.50;5113807;28;20491;-52
2022/06/23 11:13:34;;;;;;;4.40;3.00;;;;;;;28.25;35.10;100217.66;5114214;28;20460;-51
2022/06/23 11:16:39;;;;;;;9.27;3.40;;;;;;;28.08;34.58;100215.66;5112267;28;20360;-48
2022/06/23 11:19:45;;;;;;;3.67;3.25;;;;;;;29.02;35.04;100213.50;5101533;28;20063;-49
2022/06/23 11:22:36;;;;;;;6.30;3.90;;;;;;;28.57;35.41;100216.53;5087135;28;20027;-48
2022/06/23 11:25:32;;;;;;;8.60;3.45;;;;;;;28.53;35.00;100210.03;5112554;28;20091;-52
2022/06/23 11:28:10;;;;;;;3.83;3.40;;;;;;;28.27;35.91;100202.44;5100026;28;20085;-49
2022/06/23 11:30:50;;;;;;;8.15;3.35;;;;;;;28.11;37.12;100203.97;5112718;28;20088;-48
2022/06/23 11:33:49;;;;;;;8.18;4.30;;;;;;;28.00;35.99;100214.47;5113602;28;20043;-52
2022/06/23 11:36:47;;;;;;;4.65;4.13;;;;;;;27.99;36.47;100199.88;5112864;28;20046;-51
2022/06/23 11:39:46;;;;;;;7.05;3.55;;;;;;;28.03;36.34;100205.56;5113298;28;20035;-51
2022/06/23 11:42:39;;;;;;;8.43;3.97;;;;;;;27.67;36.80;100191.84;5114008;28;20403;-48
2022/06/23 11:45:35;;;;;;;7.78;4.05;;;;;;;27.80;35.08;100188.19;5099353;28;20027;-48
2022/06/23 11:48:40;;;;;;;6.43;3.60;;;;;;;27.80;35.61;100180.75;5112983;28;20040;-48
2022/06/23 11:51:23;;;;;;;8.90;3.60;;;;;;;29.11;33.14;100164.53;5100901;28;20042;-47
2022/06/23 11:54:15;;;;;;;6.50;3.35;;;;;;;29.20;32.85;100166.50;5113495;28;20124;-47
2022/06/23 11:57:15;;;;;;;7.15;3.03;;;;;;;30.44;31.13;100166.66;5111696;28;20028;-46
2022/06/23 11:59:58;;;;;;;5.95;2.92;;;;;;;30.15;32.81;100170.22;5112263;28;20384;-49
2022/06/23 12:02:23;;;;;;;3.88;2.50;;;;;;;30.41;32.61;100170.13;5112844;28;20496;-48
2022/06/23 12:05:20;;;;;;;6.50;2.83;;;;;;;30.26;31.83;100161.19;5112732;28;20031;-49
2022/06/23 12:08:07;;;;;;;5.25;3.20;;;;;;;30.44;29.39;100153.63;5112255;28;20042;-47
2022/06/23 12:10:35;;;;;;;4.20;2.67;;;;;;;30.78;31.14;100159.28;5111768;28;20044;-49
2022/06/23 12:13:06;;;;;;;4.55;2.80;;;;;;;30.26;29.88;100160.38;5113058;28;20038;-47
2022/06/23 12:15:38;;;;;;;6.57;3.42;;;;;;;29.32;32.19;100155.59;5112849;28;20110;-49
2022/06/23 12:18:13;;;;;;;5.95;2.80;;;;;;;28.69;30.80;100161.44;5112175;28;20027;-47
2022/06/23 12:20:49;;;;;;;6.78;3.50;;;;;;;28.22;32.34;100166.66;5115051;28;20039;-50
2022/06/23 12:23:26;;;;;;;5.65;2.33;;;;;;;28.15;33.42;100164.34;5114473;28;20383;-50
2022/06/23 12:26:20;;;;;;;5.00;2.28;;;;;;;28.03;32.56;100160.56;5112016;28;20024;-48
2022/06/23 12:29:12;;;;;;;5.73;2.80;;;;;;;27.79;33.52;100156.22;5098846;28;20156;-48
2022/06/23 12:31:47;;;;;;;6.40;2.55;;;;;;;27.39;34.60;100132.13;5112266;28;20042;-50
2022/06/23 12:34:26;;;;;;;3.88;2.55;;;;;;;27.12;33.14;100146.03;5113064;28;20034;-50
2022/06/23 12:37:14;;;;;;;2.97;2.33;;;;;;;27.06;34.13;100141.75;5113122;28;20032;-52
2022/06/23 12:39:57;;;;;;;10.07;2.63;;;;;;;27.09;34.19;100147.47;5113319;28;20059;-50